AUA115 LOWW-EDDM
Flight info
| Callsign | AUA115 |
|---|---|
| Flight time | N/A |
| Altitude | 28000 |
| Route | SOVIL2B/16 SOVIL DCT SITNI DCT BAGSI DCT MATIG DCT AMADI Q113 NAPSA NAPSA1B |
| Aircraft | A321/M-SDE3FGHIRWY/LB1 |
Departure
| Time | 2026-05-04 19:13 |
|---|---|
| Airport | Vienna International Airport (LOWW) |
Arrival
| Time | N/A |
|---|---|
| Airport | Munich Airport (EDDM) |
| Time | Latitude | Longitude | Altitude | Speed | Heading |
|---|---|---|---|---|---|
| 2026-05-04 18:45 | 48.11655 | 16.56953 | 621 ft | 0 kts | 26° |
| 2026-05-04 18:59 | 48.11648 | 16.56948 | 609 ft | 3 kts | 26° |
| 2026-05-04 19:00 | 48.11631 | 16.56936 | 609 ft | 3 kts | 26° |
| 2026-05-04 19:00 | 48.11614 | 16.56924 | 621 ft | 3 kts | 26° |
| 2026-05-04 19:00 | 48.11596 | 16.56917 | 623 ft | 3 kts | 333° |
| 2026-05-04 19:00 | 48.11587 | 16.56927 | 617 ft | 0 kts | 300° |
| 2026-05-04 19:02 | 48.11589 | 16.56919 | 623 ft | 4 kts | 291° |
| 2026-05-04 19:02 | 48.11604 | 16.56858 | 617 ft | 9 kts | 289° |
| 2026-05-04 19:03 | 48.11638 | 16.56736 | 617 ft | 15 kts | 296° |
| 2026-05-04 19:03 | 48.11687 | 16.56587 | 622 ft | 17 kts | 296° |
| 2026-05-04 19:03 | 48.11736 | 16.56438 | 618 ft | 15 kts | 296° |
| 2026-05-04 19:03 | 48.11750 | 16.56321 | 612 ft | 5 kts | 235° |
| 2026-05-04 19:04 | 48.11728 | 16.56298 | 619 ft | 6 kts | 213° |
| 2026-05-04 19:04 | 48.11673 | 16.56254 | 613 ft | 12 kts | 204° |
| 2026-05-04 19:04 | 48.11601 | 16.56183 | 621 ft | 13 kts | 212° |
| 2026-05-04 19:04 | 48.11601 | 16.56071 | 609 ft | 12 kts | 294° |
| 2026-05-04 19:05 | 48.11642 | 16.55951 | 616 ft | 16 kts | 297° |
| 2026-05-04 19:05 | 48.11699 | 16.55769 | 614 ft | 21 kts | 295° |
| 2026-05-04 19:05 | 48.11764 | 16.55570 | 620 ft | 22 kts | 296° |
| 2026-05-04 19:05 | 48.11835 | 16.55356 | 623 ft | 24 kts | 296° |
| 2026-05-04 19:06 | 48.11907 | 16.55131 | 622 ft | 24 kts | 295° |
| 2026-05-04 19:06 | 48.11977 | 16.54918 | 621 ft | 22 kts | 296° |
| 2026-05-04 19:06 | 48.12042 | 16.54717 | 614 ft | 21 kts | 296° |
| 2026-05-04 19:06 | 48.12103 | 16.54530 | 612 ft | 19 kts | 296° |
| 2026-05-04 19:07 | 48.12159 | 16.54356 | 617 ft | 18 kts | 296° |
| 2026-05-04 19:07 | 48.12212 | 16.54196 | 613 ft | 17 kts | 296° |
| 2026-05-04 19:07 | 48.12271 | 16.54012 | 615 ft | 20 kts | 296° |
| 2026-05-04 19:07 | 48.12331 | 16.53830 | 625 ft | 19 kts | 296° |
| 2026-05-04 19:08 | 48.12386 | 16.53661 | 620 ft | 17 kts | 296° |
| 2026-05-04 19:08 | 48.12431 | 16.53510 | 612 ft | 13 kts | 278° |
| 2026-05-04 19:08 | 48.12395 | 16.53439 | 611 ft | 4 kts | 209° |
| 2026-05-04 19:08 | 48.12393 | 16.53437 | 617 ft | 0 kts | 209° |
| 2026-05-04 19:10 | 48.12370 | 16.53417 | 617 ft | 7 kts | 209° |
| 2026-05-04 19:10 | 48.12328 | 16.53387 | 609 ft | 11 kts | 205° |
| 2026-05-04 19:11 | 48.12263 | 16.53403 | 620 ft | 10 kts | 130° |
| 2026-05-04 19:11 | 48.12254 | 16.53426 | 611 ft | 0 kts | 119° |
| 2026-05-04 19:11 | 48.12254 | 16.53427 | 611 ft | 0 kts | 119° |
| 2026-05-04 19:11 | 48.12224 | 16.53510 | 616 ft | 30 kts | 115° |
| 2026-05-04 19:12 | 48.12032 | 16.54104 | 622 ft | 94 kts | 115° |
| 2026-05-04 19:12 | 48.11193 | 16.56683 | 802 ft | 165 kts | 117° |
| 2026-05-04 19:12 | 48.10673 | 16.58283 | 1190 ft | 178 kts | 120° |
| 2026-05-04 19:13 | 48.10095 | 16.59961 | 1688 ft | 183 kts | 123° |
| 2026-05-04 19:13 | 48.09498 | 16.61660 | 2208 ft | 188 kts | 124° |
| 2026-05-04 19:13 | 48.08886 | 16.63466 | 2520 ft | 200 kts | 122° |
| 2026-05-04 19:13 | 48.08264 | 16.65375 | 2892 ft | 208 kts | 123° |
| 2026-05-04 19:14 | 48.07624 | 16.67351 | 3423 ft | 213 kts | 122° |
| 2026-05-04 19:14 | 48.06938 | 16.69326 | 4009 ft | 214 kts | 133° |
| 2026-05-04 19:14 | 48.05817 | 16.70689 | 4562 ft | 207 kts | 163° |
| 2026-05-04 19:14 | 48.04365 | 16.70999 | 4832 ft | 221 kts | 192° |
| 2026-05-04 19:15 | 48.02793 | 16.70468 | 5061 ft | 244 kts | 195° |
| 2026-05-04 19:15 | 48.01100 | 16.69866 | 5536 ft | 255 kts | 194° |
| 2026-05-04 19:15 | 47.99347 | 16.69252 | 6168 ft | 262 kts | 194° |
| 2026-05-04 19:15 | 47.97552 | 16.68621 | 6785 ft | 267 kts | 196° |
| 2026-05-04 19:16 | 47.95886 | 16.67405 | 7426 ft | 271 kts | 220° |
| 2026-05-04 19:16 | 47.94752 | 16.65173 | 8126 ft | 274 kts | 246° |
| 2026-05-04 19:16 | 47.94307 | 16.62388 | 8793 ft | 279 kts | 259° |
| 2026-05-04 19:16 | 47.94013 | 16.59514 | 9481 ft | 282 kts | 261° |
| 2026-05-04 19:17 | 47.94035 | 16.56561 | 10124 ft | 288 kts | 272° |
| 2026-05-04 19:17 | 47.94204 | 16.53494 | 10337 ft | 308 kts | 272° |
| 2026-05-04 19:17 | 47.94386 | 16.50206 | 10469 ft | 328 kts | 272° |
| 2026-05-04 19:17 | 47.94581 | 16.46733 | 10717 ft | 342 kts | 272° |
| 2026-05-04 19:18 | 47.94784 | 16.43171 | 11245 ft | 347 kts | 272° |
| 2026-05-04 19:18 | 47.94989 | 16.39576 | 11822 ft | 350 kts | 272° |
| 2026-05-04 19:18 | 47.95195 | 16.35948 | 12435 ft | 353 kts | 272° |
| 2026-05-04 19:18 | 47.95400 | 16.32291 | 13042 ft | 355 kts | 272° |
| 2026-05-04 19:19 | 47.95604 | 16.28608 | 13652 ft | 358 kts | 272° |
| 2026-05-04 19:19 | 47.95806 | 16.24894 | 14184 ft | 360 kts | 272° |
| 2026-05-04 19:19 | 47.96010 | 16.21152 | 14700 ft | 363 kts | 272° |
| 2026-05-04 19:19 | 47.96213 | 16.17388 | 15230 ft | 365 kts | 272° |
| 2026-05-04 19:20 | 47.96415 | 16.13597 | 15740 ft | 368 kts | 272° |
| 2026-05-04 19:20 | 47.96621 | 16.09781 | 16247 ft | 370 kts | 272° |
| 2026-05-04 19:20 | 47.96826 | 16.05941 | 16740 ft | 373 kts | 272° |
| 2026-05-04 19:20 | 47.97030 | 16.02074 | 17235 ft | 375 kts | 272° |
| 2026-05-04 19:21 | 47.97234 | 15.98181 | 17720 ft | 377 kts | 272° |
| 2026-05-04 19:21 | 47.97439 | 15.94266 | 18211 ft | 380 kts | 272° |
| 2026-05-04 19:21 | 47.97641 | 15.90331 | 18622 ft | 381 kts | 273° |
| 2026-05-04 19:21 | 47.97841 | 15.86370 | 19012 ft | 384 kts | 272° |
| 2026-05-04 19:22 | 47.98042 | 15.82389 | 19403 ft | 386 kts | 272° |
| 2026-05-04 19:22 | 47.98244 | 15.78391 | 19780 ft | 387 kts | 273° |
| 2026-05-04 19:22 | 47.98449 | 15.74369 | 20098 ft | 390 kts | 273° |
| 2026-05-04 19:22 | 47.98652 | 15.70320 | 20469 ft | 391 kts | 272° |
| 2026-05-04 19:23 | 47.98853 | 15.66262 | 20830 ft | 393 kts | 273° |
| 2026-05-04 19:23 | 47.99053 | 15.62198 | 21293 ft | 392 kts | 273° |
| 2026-05-04 19:23 | 47.99252 | 15.58145 | 21594 ft | 396 kts | 274° |
| 2026-05-04 19:23 | 47.99453 | 15.54017 | 21953 ft | 398 kts | 274° |
| 2026-05-04 19:24 | 47.99654 | 15.49877 | 22285 ft | 401 kts | 274° |
| 2026-05-04 19:24 | 47.99856 | 15.45713 | 22705 ft | 402 kts | 274° |
| 2026-05-04 19:24 | 48.00055 | 15.41537 | 23048 ft | 405 kts | 274° |
| 2026-05-04 19:24 | 48.00254 | 15.37343 | 23477 ft | 406 kts | 274° |
| 2026-05-04 19:25 | 48.00448 | 15.33122 | 23738 ft | 408 kts | 274° |
| 2026-05-04 19:25 | 48.00644 | 15.28877 | 23976 ft | 412 kts | 274° |
| 2026-05-04 19:25 | 48.00835 | 15.24653 | 24293 ft | 413 kts | 274° |
| 2026-05-04 19:25 | 48.01027 | 15.20371 | 24626 ft | 414 kts | 274° |
| 2026-05-04 19:26 | 48.01221 | 15.16080 | 24956 ft | 415 kts | 273° |
| 2026-05-04 19:26 | 48.01418 | 15.11775 | 25237 ft | 417 kts | 273° |
| 2026-05-04 19:26 | 48.01614 | 15.07446 | 25504 ft | 419 kts | 274° |
| 2026-05-04 19:26 | 48.01806 | 15.03082 | 25768 ft | 422 kts | 273° |
| 2026-05-04 19:27 | 48.01994 | 14.98703 | 25906 ft | 423 kts | 273° |
| 2026-05-04 19:27 | 48.02180 | 14.94309 | 25923 ft | 424 kts | 273° |
| 2026-05-04 19:27 | 48.02367 | 14.89912 | 25912 ft | 425 kts | 273° |
| 2026-05-04 19:27 | 48.02555 | 14.85509 | 25912 ft | 425 kts | 273° |
| 2026-05-04 19:28 | 48.02739 | 14.81108 | 25912 ft | 425 kts | 273° |
| 2026-05-04 19:28 | 48.02923 | 14.76704 | 25901 ft | 425 kts | 273° |
| 2026-05-04 19:28 | 48.03107 | 14.72300 | 25901 ft | 425 kts | 273° |
| 2026-05-04 19:28 | 48.03291 | 14.67897 | 25901 ft | 425 kts | 273° |
| 2026-05-04 19:29 | 48.03473 | 14.63536 | 25890 ft | 413 kts | 273° |
| 2026-05-04 19:29 | 48.03645 | 14.59319 | 25640 ft | 402 kts | 272° |
| 2026-05-04 19:29 | 48.03809 | 14.55179 | 25345 ft | 397 kts | 272° |
| 2026-05-04 19:29 | 48.03969 | 14.51069 | 25057 ft | 395 kts | 272° |
| 2026-05-04 19:30 | 48.04129 | 14.46983 | 24769 ft | 393 kts | 272° |
| 2026-05-04 19:30 | 48.04286 | 14.42911 | 24482 ft | 392 kts | 272° |
| 2026-05-04 19:30 | 48.04441 | 14.38849 | 24202 ft | 391 kts | 272° |
| 2026-05-04 19:30 | 48.04594 | 14.34805 | 23950 ft | 389 kts | 272° |
| 2026-05-04 19:31 | 48.04747 | 14.30777 | 23877 ft | 388 kts | 272° |
| 2026-05-04 19:31 | 48.04900 | 14.26743 | 23895 ft | 389 kts | 272° |
| 2026-05-04 19:31 | 48.05051 | 14.22701 | 23894 ft | 389 kts | 272° |
| 2026-05-04 19:31 | 48.05201 | 14.18659 | 23894 ft | 389 kts | 272° |
| 2026-05-04 19:32 | 48.05347 | 14.14624 | 23898 ft | 389 kts | 272° |
| 2026-05-04 19:32 | 48.05489 | 14.10582 | 23894 ft | 389 kts | 272° |
| 2026-05-04 19:32 | 48.05629 | 14.06549 | 23894 ft | 389 kts | 272° |
| 2026-05-04 19:32 | 48.05771 | 14.02509 | 23896 ft | 389 kts | 272° |
| 2026-05-04 19:33 | 48.05914 | 13.98474 | 23895 ft | 389 kts | 272° |
| 2026-05-04 19:33 | 48.06055 | 13.94438 | 23898 ft | 389 kts | 272° |
| 2026-05-04 19:33 | 48.06195 | 13.90402 | 23898 ft | 389 kts | 272° |
| 2026-05-04 19:33 | 48.06331 | 13.86363 | 23898 ft | 389 kts | 272° |
| 2026-05-04 19:34 | 48.06467 | 13.82326 | 23898 ft | 389 kts | 272° |
| 2026-05-04 19:34 | 48.06604 | 13.78283 | 23898 ft | 389 kts | 272° |
| 2026-05-04 19:34 | 48.06736 | 13.74246 | 23898 ft | 389 kts | 272° |
| 2026-05-04 19:34 | 48.06865 | 13.70206 | 23899 ft | 389 kts | 272° |